Time;durP1;ratioP1;P1;durP2;ratioP2;P2;SDS_P1;SDS_P2;PMS_P1;PMS_P2;Temp;Humidity;BMP_temperature;BMP_pressure;BME280_temperature;BME280_humidity;BME280_pressure;Samples;Min_cycle;Max_cycle;Signal;HPM_P1;HPM_P2
2022/12/05 00:00:14;;;;;;;25.80;15.40;;;4.90;99.90;;;;;;5074707;28;20045;-71
2022/12/05 00:02:40;;;;;;;21.10;15.73;;;5.00;99.90;;;;;;5074642;28;20410;-71
2022/12/05 00:05:06;;;;;;;23.80;15.13;;;5.00;99.90;;;;;;5074557;28;20047;-71
2022/12/05 00:07:32;;;;;;;23.85;15.30;;;4.90;99.90;;;;;;5074581;28;20424;-71
2022/12/05 00:09:57;;;;;;;24.05;16.85;;;4.90;99.90;;;;;;5074523;28;20051;-71
2022/12/05 00:12:23;;;;;;;26.50;17.60;;;5.00;99.90;;;;;;5074471;28;20093;-71
2022/12/05 00:14:48;;;;;;;25.73;17.55;;;4.90;99.90;;;;;;5074381;28;20044;-71
2022/12/05 00:17:14;;;;;;;27.10;17.70;;;4.90;99.90;;;;;;5074342;28;20070;-71
2022/12/05 00:19:39;;;;;;;28.42;18.25;;;5.00;99.90;;;;;;5074592;28;20048;-71
2022/12/05 00:22:05;;;;;;;26.88;18.05;;;5.00;99.90;;;;;;5074304;28;20402;-71
2022/12/05 00:24:30;;;;;;;28.20;19.13;;;5.00;99.90;;;;;;5074244;28;20408;-71
2022/12/05 00:26:56;;;;;;;27.45;17.85;;;5.00;99.90;;;;;;5074221;28;20075;-71
2022/12/05 00:29:22;;;;;;;26.35;17.73;;;5.00;99.90;;;;;;5074171;28;20044;-71
2022/12/05 00:31:47;;;;;;;28.27;18.02;;;5.00;99.90;;;;;;5074080;28;20048;-71
2022/12/05 00:34:13;;;;;;;27.67;18.48;;;5.00;99.90;;;;;;5074047;28;20072;-71
2022/12/05 00:36:39;;;;;;;30.67;19.02;;;5.00;99.90;;;;;;5073932;28;20048;-71
2022/12/05 00:39:09;;;;;;;30.05;18.92;;;5.00;99.90;;;;;;5075532;28;20064;-71
2022/12/05 00:41:35;;;;;;;28.80;18.42;;;5.00;99.90;;;;;;5073936;28;20032;-71
2022/12/05 00:44:01;;;;;;;30.08;19.73;;;5.00;99.90;;;;;;5074130;28;20040;-71
2022/12/05 00:46:28;;;;;;;27.35;18.48;;;5.00;99.90;;;;;;5073733;28;20044;-71
2022/12/05 00:48:57;;;;;;;28.55;18.70;;;5.00;99.90;;;;;;5074668;28;20132;-71
2022/12/05 00:51:27;;;;;;;26.75;18.73;;;5.00;99.90;;;;;;5073768;28;20119;-71
2022/12/05 00:53:53;;;;;;;30.48;19.55;;;5.00;99.90;;;;;;5073890;28;20098;-71
2022/12/05 00:56:22;;;;;;;26.75;18.17;;;5.00;99.90;;;;;;5073587;28;20041;-71
2022/12/05 00:58:49;;;;;;;28.67;18.60;;;5.00;99.90;;;;;;5073637;28;20036;-71
2022/12/05 01:01:17;;;;;;;25.80;18.23;;;5.00;99.90;;;;;;5073847;28;20048;-71
2022/12/05 01:03:44;;;;;;;26.65;18.40;;;5.10;99.90;;;;;;5073490;28;20072;-71
2022/12/05 01:06:11;;;;;;;27.08;18.75;;;5.10;99.90;;;;;;5073444;28;20444;-71
2022/12/05 01:08:37;;;;;;;29.20;19.50;;;5.10;99.90;;;;;;5073614;28;20048;-71
2022/12/05 01:11:04;;;;;;;28.55;18.95;;;5.10;99.90;;;;;;5073360;28;20056;-71
2022/12/05 01:13:30;;;;;;;26.63;18.55;;;5.10;99.90;;;;;;5073281;28;20052;-71
2022/12/05 01:15:56;;;;;;;25.88;18.05;;;5.10;99.90;;;;;;5073160;28;20040;-71
2022/12/05 01:18:22;;;;;;;32.22;20.65;;;5.10;99.90;;;;;;5073202;28;20066;-71
2022/12/05 01:20:49;;;;;;;28.50;19.17;;;5.10;99.90;;;;;;5073418;28;20063;-71
2022/12/05 01:23:15;;;;;;;27.77;18.67;;;5.10;99.90;;;;;;5073304;28;20485;-71
2022/12/05 01:25:42;;;;;;;31.75;19.95;;;5.20;99.90;;;;;;5073296;28;20124;-71
2022/12/05 01:28:08;;;;;;;30.17;20.45;;;5.20;99.90;;;;;;5073242;28;20044;-71
2022/12/05 01:30:39;;;;;;;32.80;19.42;;;5.20;99.90;;;;;;5073263;28;20068;-71
2022/12/05 01:33:05;;;;;;;30.13;19.23;;;5.20;99.90;;;;;;5072818;28;20143;-71
2022/12/05 01:35:31;;;;;;;31.60;19.35;;;5.20;99.90;;;;;;5073118;28;20048;-71
2022/12/05 01:37:57;;;;;;;28.80;19.20;;;5.20;99.90;;;;;;5072776;28;20072;-71
2022/12/05 01:40:23;;;;;;;32.90;20.80;;;5.20;99.90;;;;;;5072747;28;20129;-71
2022/12/05 01:42:48;;;;;;;34.70;20.67;;;5.20;99.90;;;;;;5072971;28;20097;-71
2022/12/05 01:45:17;;;;;;;32.50;21.02;;;5.20;99.90;;;;;;5072639;28;20504;-71
2022/12/05 01:47:43;;;;;;;34.65;21.58;;;5.30;99.90;;;;;;5072580;28;20040;-71
2022/12/05 01:50:11;;;;;;;39.45;24.05;;;5.20;99.90;;;;;;5072565;28;20036;-71
2022/12/05 01:52:38;;;;;;;40.05;25.13;;;5.30;99.90;;;;;;5072534;28;20464;-71
2022/12/05 01:55:09;;;;;;;41.70;25.55;;;5.30;99.90;;;;;;5072720;28;20040;-71
2022/12/05 01:57:35;;;;;;;38.65;24.25;;;5.30;99.90;;;;;;5073281;28;20036;-71
2022/12/05 02:00:07;;;;;;;39.33;24.85;;;5.30;99.90;;;;;;5072979;28;20063;-71
2022/12/05 02:02:33;;;;;;;37.73;23.33;;;5.30;99.90;;;;;;5072471;28;20043;-71
2022/12/05 02:05:20;;;;;;;42.53;24.80;;;5.30;99.90;;;;;;5072506;28;20041;-71
2022/12/05 02:07:47;;;;;;;40.25;23.95;;;5.30;99.90;;;;;;5055511;28;20072;-71
2022/12/05 02:10:13;;;;;;;40.00;23.38;;;5.30;99.90;;;;;;5072269;28;20047;-71
2022/12/05 02:12:40;;;;;;;40.67;23.95;;;5.30;99.90;;;;;;5072455;28;20076;-71
2022/12/05 02:15:22;;;;;;;39.45;22.77;;;5.30;99.90;;;;;;5072402;28;20111;-71
2022/12/05 02:18:24;;;;;;;41.08;23.90;;;5.40;99.90;;;;;;5072096;28;20535;-71
2022/12/05 02:21:13;;;;;;;38.15;22.42;;;5.40;99.90;;;;;;5072023;28;20036;-71
2022/12/05 02:23:49;;;;;;;36.13;23.75;;;5.30;99.90;;;;;;5061307;28;20045;-71
2022/12/05 02:26:33;;;;;;;38.60;24.05;;;5.40;99.90;;;;;;5055404;28;20079;-71
2022/12/05 02:29:36;;;;;;;45.05;24.35;;;5.40;99.90;;;;;;5072335;28;20590;-71
2022/12/05 02:32:11;;;;;;;39.88;24.10;;;5.40;99.90;;;;;;5072283;28;20447;-71
2022/12/05 02:34:56;;;;;;;40.88;23.73;;;5.30;99.90;;;;;;5072151;28;20405;-71
2022/12/05 02:37:27;;;;;;;38.10;23.27;;;5.30;99.90;;;;;;5071841;28;20083;-71
2022/12/05 02:40:14;;;;;;;43.45;24.20;;;5.40;99.90;;;;;;5071938;28;20098;-71
2022/12/05 02:42:52;;;;;;;41.08;23.85;;;5.40;99.90;;;;;;5071772;28;20493;-71
2022/12/05 02:45:23;;;;;;;39.75;23.65;;;5.40;99.90;;;;;;5071822;28;20098;-71
2022/12/05 02:47:51;;;;;;;38.40;23.45;;;5.40;99.90;;;;;;5071765;28;20056;-71
2022/12/05 02:50:24;;;;;;;39.25;24.30;;;5.40;99.90;;;;;;5071829;28;20066;-71
2022/12/05 02:52:53;;;;;;;40.45;24.17;;;5.40;99.90;;;;;;5071828;28;20076;-71
2022/12/05 02:55:19;;;;;;;35.03;23.05;;;5.40;99.90;;;;;;5071956;28;20068;-71
2022/12/05 02:57:51;;;;;;;34.85;22.08;;;5.50;99.90;;;;;;5071679;28;20044;-71
2022/12/05 03:00:17;;;;;;;34.90;22.38;;;5.40;99.90;;;;;;5072019;28;20047;-71
2022/12/05 03:02:43;;;;;;;39.40;23.33;;;5.40;99.90;;;;;;5071677;28;20040;-71
2022/12/05 03:05:27;;;;;;;38.97;22.05;;;5.40;99.90;;;;;;5071596;28;20041;-71
2022/12/05 03:07:58;;;;;;;39.85;23.33;;;5.50;99.90;;;;;;5071698;28;20045;-71
2022/12/05 03:10:27;;;;;;;37.13;23.38;;;5.50;99.90;;;;;;5071664;28;20512;-71
2022/12/05 03:12:56;;;;;;;39.13;22.40;;;5.50;99.90;;;;;;5071634;28;20196;-71
2022/12/05 03:15:29;;;;;;;39.92;22.83;;;5.50;99.90;;;;;;5071735;28;20045;-71
2022/12/05 03:18:20;;;;;;;38.58;24.25;;;5.40;99.90;;;;;;5071556;28;20041;-71
2022/12/05 03:21:03;;;;;;;42.33;24.80;;;5.50;99.90;;;;;;5071552;28;20501;-71
2022/12/05 03:23:38;;;;;;;41.53;24.35;;;5.50;99.90;;;;;;5071451;28;20040;-71
2022/12/05 03:26:25;;;;;;;40.08;23.42;;;5.50;99.90;;;;;;5071532;28;20044;-71
2022/12/05 03:29:18;;;;;;;47.85;24.52;;;5.50;99.90;;;;;;5071463;28;20079;-71
2022/12/05 03:31:45;;;;;;;38.40;22.00;;;5.50;99.90;;;;;;5073372;28;20052;-71
2022/12/05 03:34:17;;;;;;;37.47;21.58;;;5.40;99.90;;;;;;5075181;28;20036;-71
2022/12/05 03:36:47;;;;;;;31.67;21.15;;;5.40;99.90;;;;;;5075143;28;20532;-71
2022/12/05 03:39:22;;;;;;;39.58;22.35;;;5.50;99.90;;;;;;5075338;28;20404;-71
2022/12/05 03:42:15;;;;;;;35.55;19.98;;;5.50;99.90;;;;;;5075338;28;20055;-71
2022/12/05 03:44:51;;;;;;;32.50;19.90;;;5.50;99.90;;;;;;5074945;28;20515;-71
2022/12/05 03:47:31;;;;;;;31.17;17.80;;;5.50;99.90;;;;;;5075135;28;20063;-71
2022/12/05 03:50:01;;;;;;;29.25;18.20;;;5.50;99.90;;;;;;5074936;28;20408;-71
2022/12/05 03:52:38;;;;;;;29.88;17.95;;;5.50;99.90;;;;;;5074904;28;20102;-71
2022/12/05 03:55:07;;;;;;;24.23;16.58;;;5.50;99.90;;;;;;5074791;28;20043;-71
2022/12/05 03:57:44;;;;;;;22.75;15.15;;;5.50;99.90;;;;;;5074699;28;20048;-71
2022/12/05 04:00:15;;;;;;;21.92;15.77;;;5.50;99.90;;;;;;5075050;28;20397;-71
2022/12/05 04:03:04;;;;;;;19.23;13.57;;;5.50;99.90;;;;;;5074772;28;20052;-71
2022/12/05 04:05:48;;;;;;;18.88;14.02;;;5.50;99.90;;;;;;5057993;28;20115;-71
2022/12/05 04:08:27;;;;;;;21.23;14.32;;;5.60;99.90;;;;;;5074674;28;20037;-71
2022/12/05 04:10:58;;;;;;;21.65;13.88;;;5.50;99.90;;;;;;5074599;28;20041;-71
2022/12/05 04:13:50;;;;;;;21.30;14.07;;;5.50;99.90;;;;;;5074461;28;20032;-71
2022/12/05 04:22:25;;;;;;;16.70;11.88;;;5.50;99.90;;;;;;5059438;28;20040;-71
2022/12/05 04:28:06;;;;;;;17.20;12.38;;;5.50;99.90;;;;;;5074300;28;20060;-71
2022/12/05 04:30:47;;;;;;;18.83;12.82;;;5.60;99.90;;;;;;5057564;28;20040;-71
2022/12/05 04:33:39;;;;;;;22.70;14.02;;;5.50;99.90;;;;;;5075927;28;20387;-71
2022/12/05 04:36:16;;;;;;;23.27;14.30;;;5.50;99.90;;;;;;5066100;28;20052;-71
2022/12/05 04:38:56;;;;;;;17.40;13.38;;;5.50;99.90;;;;;;5074133;28;20048;-71
2022/12/05 04:41:27;;;;;;;16.90;13.52;;;5.60;99.90;;;;;;5073914;28;20037;-71
2022/12/05 04:43:56;;;;;;;18.27;12.65;;;5.60;99.90;;;;;;5073923;28;20041;-71
2022/12/05 04:46:23;;;;;;;18.73;12.77;;;5.50;99.90;;;;;;5074039;28;20080;-71
2022/12/05 04:48:55;;;;;;;16.45;12.20;;;5.60;99.90;;;;;;5073894;28;20046;-71
2022/12/05 04:51:24;;;;;;;16.25;10.65;;;5.60;99.90;;;;;;5074125;28;20133;-71
2022/12/05 04:53:54;;;;;;;12.18;9.55;;;5.60;99.90;;;;;;5073720;28;20044;-71
2022/12/05 04:56:23;;;;;;;13.60;10.32;;;5.60;99.90;;;;;;5073662;28;20044;-71
2022/12/05 04:58:49;;;;;;;14.40;10.15;;;5.60;99.90;;;;;;5073662;28;20032;-71
2022/12/05 05:01:28;;;;;;;14.95;10.93;;;5.60;99.90;;;;;;5073570;28;20128;-71
2022/12/05 05:04:04;;;;;;;9.80;7.78;;;5.60;99.90;;;;;;5073521;28;20481;-71
2022/12/05 05:06:30;;;;;;;12.95;8.70;;;5.60;99.90;;;;;;5073806;28;20511;-71
2022/12/05 05:08:57;;;;;;;13.32;8.10;;;5.60;99.90;;;;;;5073501;28;20123;-71
2022/12/05 05:11:28;;;;;;;11.23;8.60;;;5.60;99.90;;;;;;5073404;28;20040;-71
2022/12/05 05:13:54;;;;;;;12.48;8.50;;;5.70;99.90;;;;;;5073589;28;20040;-71
2022/12/05 05:16:33;;;;;;;10.13;7.75;;;5.60;99.90;;;;;;5073177;28;20105;-71
2022/12/05 05:18:59;;;;;;;9.85;7.75;;;5.60;99.90;;;;;;5073292;28;20045;-71
2022/12/05 05:21:26;;;;;;;9.23;6.75;;;5.60;99.90;;;;;;5073142;28;20128;-71
2022/12/05 05:23:52;;;;;;;9.55;7.03;;;5.60;99.90;;;;;;5073059;28;20032;-71
2022/12/05 05:26:18;;;;;;;8.57;7.15;;;5.60;99.90;;;;;;5073110;28;20386;-71
2022/12/05 05:28:44;;;;;;;11.65;7.70;;;5.60;99.90;;;;;;5073061;28;20044;-71
2022/12/05 05:31:11;;;;;;;8.80;6.63;;;5.60;99.90;;;;;;5073001;28;20048;-71
2022/12/05 05:33:37;;;;;;;7.25;6.03;;;5.60;99.90;;;;;;5072863;28;20493;-71
2022/12/05 05:36:05;;;;;;;8.30;6.55;;;5.60;99.90;;;;;;5072827;28;20059;-71
2022/12/05 05:38:33;;;;;;;8.40;6.18;;;5.60;99.90;;;;;;5072801;28;20090;-71
2022/12/05 05:40:59;;;;;;;9.32;6.63;;;5.60;99.90;;;;;;5072763;28;20047;-71
2022/12/05 05:43:24;;;;;;;7.75;6.10;;;5.60;99.90;;;;;;5072757;28;20040;-71
2022/12/05 05:45:50;;;;;;;7.72;6.05;;;5.60;99.90;;;;;;5072610;28;20119;-71
2022/12/05 05:48:16;;;;;;;8.35;6.25;;;5.60;99.90;;;;;;5072979;28;20117;-71
2022/12/05 05:50:41;;;;;;;8.95;6.50;;;5.60;99.90;;;;;;5072695;28;20420;-71
2022/12/05 05:53:07;;;;;;;10.70;6.25;;;5.60;99.90;;;;;;5072175;28;20070;-71
2022/12/05 05:55:32;;;;;;;8.27;5.50;;;5.60;99.90;;;;;;5072086;28;20090;-71
2022/12/05 05:57:58;;;;;;;9.77;7.25;;;5.60;99.90;;;;;;5072376;28;20055;-71
2022/12/05 06:00:23;;;;;;;9.70;6.65;;;5.60;99.90;;;;;;5072413;28;20040;-71
2022/12/05 06:02:49;;;;;;;8.63;6.43;;;5.60;99.90;;;;;;5072403;28;20119;-71
2022/12/05 06:05:14;;;;;;;7.95;6.45;;;5.60;99.90;;;;;;5072251;28;20038;-71
2022/12/05 06:07:40;;;;;;;9.95;6.40;;;5.60;99.90;;;;;;5072875;28;20083;-71
2022/12/05 06:10:06;;;;;;;10.68;7.13;;;5.60;99.90;;;;;;5072621;28;20036;-71
2022/12/05 06:12:31;;;;;;;8.25;5.82;;;5.60;99.90;;;;;;5072519;28;20042;-71
2022/12/05 06:14:57;;;;;;;10.00;6.65;;;5.60;99.90;;;;;;5055452;28;20471;-71
2022/12/05 06:17:23;;;;;;;9.07;6.70;;;5.60;99.90;;;;;;5072095;28;20040;-71
2022/12/05 06:19:48;;;;;;;8.55;6.63;;;5.60;99.90;;;;;;5072085;28;20115;-71
2022/12/05 06:22:14;;;;;;;10.00;6.72;;;5.60;99.90;;;;;;5072399;28;20036;-71
2022/12/05 06:24:39;;;;;;;8.05;6.30;;;5.60;99.90;;;;;;5072003;28;20116;-71
2022/12/05 06:27:05;;;;;;;7.72;6.13;;;5.60;99.90;;;;;;5072326;28;20106;-71
2022/12/05 06:29:30;;;;;;;8.73;6.68;;;5.60;99.90;;;;;;5072007;28;20040;-71
2022/12/05 06:31:56;;;;;;;9.80;6.28;;;5.60;99.90;;;;;;5072046;28;20041;-71
2022/12/05 06:34:22;;;;;;;8.52;5.85;;;5.70;99.90;;;;;;5071929;28;20040;-71
2022/12/05 06:36:47;;;;;;;9.30;5.90;;;5.60;99.90;;;;;;5071890;28;20043;-71
2022/12/05 06:39:13;;;;;;;7.90;6.03;;;5.70;99.90;;;;;;5071940;28;20040;-71
2022/12/05 06:41:38;;;;;;;11.25;6.30;;;5.70;99.90;;;;;;5072130;28;20076;-71
2022/12/05 06:44:04;;;;;;;8.60;6.20;;;5.70;99.90;;;;;;5071819;28;20516;-71
2022/12/05 06:46:29;;;;;;;8.52;6.25;;;5.70;99.90;;;;;;5071732;28;20074;-71
2022/12/05 06:48:56;;;;;;;7.60;5.75;;;5.70;99.90;;;;;;5071815;28;20048;-71
2022/12/05 06:51:23;;;;;;;8.48;5.43;;;5.70;99.90;;;;;;5071805;28;20036;-71
2022/12/05 06:53:48;;;;;;;8.52;6.07;;;5.70;99.90;;;;;;5071725;28;20041;-71
2022/12/05 06:56:18;;;;;;;8.98;6.38;;;5.70;99.90;;;;;;5071694;28;20158;-71
2022/12/05 06:58:46;;;;;;;8.88;6.25;;;5.70;99.90;;;;;;5071946;28;20040;-71
2022/12/05 07:03:58;;;;;;;10.13;6.57;;;5.70;99.90;;;;;;5071629;28;20048;-71
2022/12/05 07:06:24;;;;;;;6.72;5.70;;;5.70;99.90;;;;;;5074843;28;20041;-71
2022/12/05 07:08:50;;;;;;;9.50;6.68;;;5.70;99.90;;;;;;5075765;28;20041;-71
2022/12/05 07:11:15;;;;;;;10.02;6.47;;;5.70;99.90;;;;;;5075716;28;20119;-71
2022/12/05 07:13:41;;;;;;;9.90;6.82;;;5.70;99.90;;;;;;5075552;28;20044;-71
2022/12/05 07:16:07;;;;;;;9.27;6.13;;;5.70;99.90;;;;;;5075524;28;20139;-71
2022/12/05 07:18:33;;;;;;;9.10;6.68;;;5.70;99.90;;;;;;5075848;28;20056;-71
2022/12/05 07:21:02;;;;;;;8.93;6.20;;;5.70;99.90;;;;;;5075476;28;20417;-71
2022/12/05 07:23:28;;;;;;;9.20;6.00;;;5.70;99.90;;;;;;5075402;28;20089;-71
2022/12/05 07:25:53;;;;;;;8.93;7.00;;;5.70;99.90;;;;;;5075373;28;20044;-71
2022/12/05 07:28:19;;;;;;;11.20;6.60;;;5.70;99.90;;;;;;5075675;28;20051;-71
2022/12/05 07:30:45;;;;;;;10.82;7.10;;;5.70;99.90;;;;;;5075369;28;20401;-71
2022/12/05 07:33:10;;;;;;;8.68;6.97;;;5.70;99.90;;;;;;5075142;28;20040;-71
2022/12/05 07:35:36;;;;;;;10.38;7.22;;;5.70;99.90;;;;;;5075193;28;20040;-71
2022/12/05 07:38:02;;;;;;;10.27;7.10;;;5.70;99.90;;;;;;5075084;28;20052;-71
2022/12/05 07:40:28;;;;;;;12.68;7.35;;;5.70;99.90;;;;;;5075117;28;20043;-71
2022/12/05 07:42:53;;;;;;;14.38;7.28;;;5.70;99.90;;;;;;5075053;28;20037;-71
2022/12/05 07:45:20;;;;;;;11.07;7.20;;;5.70;99.90;;;;;;5075578;28;20123;-71
2022/12/05 07:47:46;;;;;;;10.75;6.45;;;5.70;99.90;;;;;;5074884;28;20478;-71
2022/12/05 07:50:12;;;;;;;12.05;7.30;;;5.70;99.90;;;;;;5074899;28;20086;-71
2022/12/05 07:52:38;;;;;;;11.15;7.25;;;5.70;99.90;;;;;;5075965;28;20059;-71
2022/12/05 07:55:05;;;;;;;14.73;8.48;;;5.70;99.90;;;;;;5075006;28;20486;-71
2022/12/05 07:57:30;;;;;;;13.75;7.78;;;5.70;99.90;;;;;;5074823;28;20476;-71
2022/12/05 07:59:56;;;;;;;12.98;7.88;;;5.70;99.90;;;;;;5074763;28;20111;-71
2022/12/05 08:02:22;;;;;;;13.88;8.20;;;5.70;99.90;;;;;;5074791;28;20048;-71
2022/12/05 08:04:47;;;;;;;13.07;8.07;;;5.70;99.90;;;;;;5074856;28;20036;-71
2022/12/05 08:07:13;;;;;;;11.20;7.28;;;5.70;99.90;;;;;;5074896;28;20047;-71
2022/12/05 08:09:39;;;;;;;15.43;8.38;;;5.70;99.90;;;;;;5074588;28;20497;-72
2022/12/05 08:12:04;;;;;;;13.20;8.20;;;5.70;99.90;;;;;;5075104;28;20078;-72
2022/12/05 08:14:30;;;;;;;14.73;8.68;;;5.70;99.90;;;;;;5074401;28;20577;-71
2022/12/05 08:16:56;;;;;;;13.15;8.80;;;5.70;99.90;;;;;;5073557;28;20123;-71
2022/12/05 08:19:21;;;;;;;15.57;8.95;;;5.70;99.90;;;;;;5074402;28;20486;-71
2022/12/05 08:21:47;;;;;;;16.15;8.88;;;5.70;99.90;;;;;;5074608;28;20041;-71
2022/12/05 08:24:13;;;;;;;16.83;8.52;;;5.70;99.90;;;;;;5074391;28;20033;-71
2022/12/05 08:26:39;;;;;;;16.05;8.45;;;5.70;99.90;;;;;;5074308;28;20048;-71
2022/12/05 08:29:06;;;;;;;15.77;8.50;;;5.70;99.90;;;;;;5074437;28;20040;-71
2022/12/05 08:31:34;;;;;;;13.70;8.25;;;5.70;99.90;;;;;;5074151;28;20044;-71
2022/12/05 08:34:00;;;;;;;17.30;8.68;;;5.70;99.90;;;;;;5074001;28;20093;-71
2022/12/05 08:36:30;;;;;;;15.20;7.97;;;5.70;99.90;;;;;;5073989;28;20048;-71
2022/12/05 08:38:57;;;;;;;14.27;7.53;;;5.70;99.90;;;;;;5074008;28;20033;-71
2022/12/05 08:41:27;;;;;;;14.95;8.25;;;5.70;99.90;;;;;;5073954;28;20040;-71
2022/12/05 08:43:57;;;;;;;13.27;8.13;;;5.70;99.90;;;;;;5057089;28;20037;-71
2022/12/05 08:46:23;;;;;;;13.80;8.27;;;5.70;99.90;;;;;;5074073;28;20048;-72
2022/12/05 08:48:48;;;;;;;16.15;8.70;;;5.70;99.90;;;;;;5073939;28;20127;-71
2022/12/05 08:51:14;;;;;;;14.35;8.25;;;5.70;99.90;;;;;;5074079;28;20047;-71
2022/12/05 08:53:40;;;;;;;13.82;8.57;;;5.70;99.90;;;;;;5073769;28;20089;-71
2022/12/05 08:56:08;;;;;;;12.18;7.47;;;5.70;99.90;;;;;;5073716;28;20033;-73
2022/12/05 08:58:33;;;;;;;20.00;9.15;;;5.70;99.90;;;;;;5074134;28;20033;-73
2022/12/05 09:01:08;;;;;;;15.27;8.82;;;5.70;99.90;;;;;;5073765;28;20386;-73
2022/12/05 09:03:33;;;;;;;13.25;7.82;;;5.70;99.90;;;;;;5073595;28;20090;-73
2022/12/05 09:06:26;;;;;;;14.85;8.80;;;5.70;99.90;;;;;;5073708;28;20032;-73
2022/12/05 09:09:01;;;;;;;15.13;8.30;;;5.70;99.90;;;;;;5056111;28;20044;-73
2022/12/05 09:11:30;;;;;;;15.43;8.38;;;5.70;99.90;;;;;;5073716;28;20040;-73
2022/12/05 09:13:58;;;;;;;17.42;7.70;;;5.70;99.90;;;;;;5073671;28;20068;-73
2022/12/05 09:16:28;;;;;;;13.23;7.38;;;5.70;99.90;;;;;;5073412;28;20115;-73
2022/12/05 09:18:54;;;;;;;14.48;8.57;;;5.70;99.90;;;;;;5073452;28;20512;-73
2022/12/05 09:21:22;;;;;;;11.35;7.65;;;5.70;99.90;;;;;;5073316;28;20036;-73
2022/12/05 09:23:49;;;;;;;12.77;7.40;;;5.70;99.90;;;;;;5073226;28;20044;-73
2022/12/05 09:26:18;;;;;;;11.00;7.47;;;5.70;99.90;;;;;;5073263;28;20048;-73
2022/12/05 09:28:44;;;;;;;12.02;7.47;;;5.70;99.90;;;;;;5072599;28;20048;-73
2022/12/05 09:31:16;;;;;;;14.35;7.60;;;5.70;99.90;;;;;;5073244;28;20044;-73
2022/12/05 09:33:42;;;;;;;15.15;8.25;;;5.70;99.90;;;;;;5073372;28;20048;-73
2022/12/05 09:36:14;;;;;;;12.82;7.53;;;5.70;99.90;;;;;;5073162;28;20409;-73
2022/12/05 09:38:40;;;;;;;12.38;7.70;;;5.70;99.90;;;;;;5056512;28;20508;-73
2022/12/05 09:41:20;;;;;;;14.73;8.30;;;5.70;99.90;;;;;;5072979;28;20094;-73
2022/12/05 09:43:59;;;;;;;11.50;7.07;;;5.80;99.90;;;;;;5073253;28;20079;-73
2022/12/05 09:46:49;;;;;;;13.88;7.88;;;5.70;99.90;;;;;;5072705;28;20051;-73
2022/12/05 09:49:15;;;;;;;11.70;7.85;;;5.70;99.90;;;;;;5073239;28;20125;-73
2022/12/05 09:51:44;;;;;;;14.20;7.50;;;5.70;99.90;;;;;;5072771;28;20079;-73
2022/12/05 09:54:11;;;;;;;12.43;7.63;;;5.70;99.90;;;;;;5072839;28;20378;-73
2022/12/05 09:56:40;;;;;;;12.55;7.10;;;5.70;99.90;;;;;;5072827;28;20058;-73
2022/12/05 09:59:12;;;;;;;12.65;7.35;;;5.70;99.90;;;;;;5072721;28;20121;-73
2022/12/05 10:01:51;;;;;;;11.50;7.63;;;5.70;99.90;;;;;;5072713;28;20051;-73
2022/12/05 10:05:07;;;;;;;15.85;8.57;;;5.70;99.90;;;;;;5072721;28;20071;-73
2022/12/05 10:07:42;;;;;;;12.35;7.50;;;5.70;99.90;;;;;;5070420;28;20046;-73
2022/12/05 10:10:44;;;;;;;11.48;7.28;;;5.70;99.90;;;;;;5072461;28;20048;-73
2022/12/05 10:13:31;;;;;;;13.90;8.43;;;5.70;99.90;;;;;;5072374;28;20040;-73
2022/12/05 10:16:02;;;;;;;12.23;7.40;;;5.70;99.90;;;;;;5072396;28;20036;-73
2022/12/05 10:18:50;;;;;;;12.20;7.43;;;5.70;99.90;;;;;;5072349;28;20036;-73
2022/12/05 10:21:28;;;;;;;14.73;8.32;;;5.70;99.90;;;;;;5072347;28;20051;-73
2022/12/05 10:24:00;;;;;;;13.80;7.45;;;5.70;99.90;;;;;;5072158;28;20444;-73
2022/12/05 10:26:33;;;;;;;16.15;8.02;;;5.70;99.90;;;;;;5072179;28;20040;-73
2022/12/05 10:29:27;;;;;;;11.68;7.95;;;5.70;99.90;;;;;;5072231;28;20045;-73
2022/12/05 10:32:04;;;;;;;14.57;7.68;;;5.80;99.90;;;;;;5072161;28;20082;-73
2022/12/05 10:34:36;;;;;;;13.45;8.02;;;5.80;99.90;;;;;;5071940;28;20127;-73
2022/12/05 10:37:16;;;;;;;12.30;7.83;;;5.70;99.90;;;;;;5072116;28;20048;-73
2022/12/05 10:39:42;;;;;;;15.02;8.55;;;5.70;99.90;;;;;;5071676;28;20052;-73
2022/12/05 10:42:30;;;;;;;12.18;7.13;;;5.70;99.90;;;;;;5071997;28;20032;-73
2022/12/05 10:45:00;;;;;;;11.88;7.80;;;5.70;99.90;;;;;;5055781;28;20063;-73
2022/12/05 10:47:26;;;;;;;11.60;7.68;;;5.70;99.90;;;;;;5072179;28;20040;-73
2022/12/05 10:49:54;;;;;;;11.65;6.90;;;5.70;99.90;;;;;;5072129;28;20132;-73
2022/12/05 10:52:19;;;;;;;16.05;8.63;;;5.70;99.90;;;;;;5055527;28;20052;-73
2022/12/05 10:54:59;;;;;;;13.25;8.15;;;5.70;99.90;;;;;;5072048;28;20037;-73
2022/12/05 10:57:29;;;;;;;18.63;8.00;;;5.70;99.90;;;;;;5071986;28;20085;-73
2022/12/05 10:59:55;;;;;;;14.15;8.00;;;5.70;99.90;;;;;;5072215;28;20405;-73
2022/12/05 11:02:30;;;;;;;12.73;7.53;;;5.70;99.90;;;;;;5072382;28;20097;-73
2022/12/05 11:04:57;;;;;;;13.60;8.15;;;5.70;99.90;;;;;;5072036;28;20119;-73
2022/12/05 11:07:46;;;;;;;11.57;7.07;;;5.80;99.90;;;;;;5071919;28;20528;-73
2022/12/05 11:10:36;;;;;;;12.73;7.50;;;5.80;99.90;;;;;;5071831;28;20037;-73
2022/12/05 11:13:14;;;;;;;14.15;8.48;;;5.70;99.90;;;;;;5071795;28;20519;-73
2022/12/05 11:15:45;;;;;;;14.27;7.80;;;5.70;99.90;;;;;;5072280;28;20037;-73
2022/12/05 11:18:28;;;;;;;13.40;8.23;;;5.80;99.90;;;;;;5072376;28;20087;-74
2022/12/05 11:20:54;;;;;;;;;;;5.80;99.90;;;;;;5072723;28;20489;-73
2022/12/05 11:23:29;;;;;;;13.50;7.55;;;5.70;99.90;;;;;;5055688;28;19962;-73
2022/12/05 11:25:56;;;;;;;16.02;7.80;;;5.70;99.90;;;;;;5055166;28;20080;-73
2022/12/05 11:28:50;;;;;;;10.90;7.25;;;5.70;99.90;;;;;;5071907;28;20032;-73
2022/12/05 11:31:21;;;;;;;;;;;5.80;99.90;;;;;;5070508;28;20494;-73
2022/12/05 11:34:14;;;;;;;13.07;7.45;;;5.70;99.90;;;;;;5071678;28;19923;-73
2022/12/05 11:36:46;;;;;;;12.73;6.97;;;5.70;99.90;;;;;;5071503;28;20041;-73
2022/12/05 11:39:13;;;;;;;11.35;6.03;;;5.80;99.90;;;;;;5056045;28;20075;-73
2022/12/05 11:42:03;;;;;;;9.73;6.53;;;5.80;99.90;;;;;;5055033;28;20041;-73
2022/12/05 11:45:06;;;;;;;11.07;6.88;;;5.80;99.90;;;;;;5071655;28;20036;-74
2022/12/05 11:47:39;;;;;;;10.20;6.60;;;5.70;99.90;;;;;;5071387;28;20040;-74
2022/12/05 11:50:23;;;;;;;10.57;6.30;;;5.70;99.90;;;;;;5071618;28;20094;-73
2022/12/05 11:53:07;;;;;;;12.18;6.57;;;5.80;99.90;;;;;;5073329;28;20036;-73
2022/12/05 11:55:45;;;;;;;9.93;5.50;;;5.80;99.90;;;;;;5075080;28;20562;-73
2022/12/05 11:58:58;;;;;;;13.25;6.70;;;5.80;99.90;;;;;;5074937;28;20123;-75
2022/12/05 12:01:50;;;;;;;12.82;6.32;;;5.80;99.90;;;;;;5037480;28;20037;-76
2022/12/05 12:05:00;;;;;;;10.23;6.72;;;5.70;99.90;;;;;;5073828;28;20079;-73
2022/12/05 12:07:38;;;;;;;10.35;6.00;;;5.80;99.90;;;;;;5020859;28;20455;-73
2022/12/05 12:10:15;;;;;;;8.23;5.50;;;5.70;99.90;;;;;;5037591;28;20051;-73
2022/12/05 12:13:19;;;;;;;8.48;5.40;;;5.80;99.90;;;;;;5038021;28;20505;-73
2022/12/05 12:15:58;;;;;;;9.70;5.45;;;5.80;99.90;;;;;;5005223;28;20455;-73
2022/12/05 12:18:49;;;;;;;9.90;5.47;;;5.80;99.90;;;;;;5037589;28;20057;-73
2022/12/05 12:21:36;;;;;;;8.65;4.90;;;5.80;99.90;;;;;;5037694;28;20037;-73
2022/12/05 12:24:10;;;;;;;7.60;4.75;;;5.80;99.90;;;;;;5037385;28;20043;-73
2022/12/05 12:27:02;;;;;;;7.70;5.18;;;5.80;99.90;;;;;;5037422;28;20055;-73
2022/12/05 12:29:30;;;;;;;8.48;5.05;;;5.80;99.90;;;;;;5021123;28;20056;-73
2022/12/05 12:32:27;;;;;;;9.05;4.97;;;5.80;99.90;;;;;;5037503;28;20460;-73
2022/12/05 12:35:01;;;;;;;8.52;5.18;;;5.90;99.90;;;;;;5037433;28;20252;-73
2022/12/05 12:37:42;;;;;;;9.93;5.50;;;5.90;99.90;;;;;;5043608;28;20109;-73
2022/12/05 12:40:21;;;;;;;7.43;4.68;;;5.90;99.90;;;;;;5075537;28;20040;-73
2022/12/05 12:43:09;;;;;;;6.88;4.40;;;5.90;99.90;;;;;;5074599;28;20042;-73
2022/12/05 12:46:11;;;;;;;7.03;4.43;;;5.90;99.90;;;;;;5075450;28;20186;-73
2022/12/05 12:49:14;;;;;;;8.15;4.15;;;5.90;99.90;;;;;;5040227;28;20045;-73
2022/12/05 12:51:50;;;;;;;7.07;3.88;;;5.90;99.90;;;;;;5075238;28;20044;-73
2022/12/05 12:54:22;;;;;;;8.00;4.78;;;5.80;99.90;;;;;;5075152;28;20068;-73
2022/12/05 12:56:57;;;;;;;8.00;4.85;;;5.90;99.90;;;;;;5075045;28;20044;-73
2022/12/05 12:59:44;;;;;;;9.10;4.85;;;5.80;99.90;;;;;;5075353;28;20036;-73
2022/12/05 13:02:30;;;;;;;9.50;5.00;;;5.90;99.90;;;;;;5074729;28;20064;-73
2022/12/05 13:05:07;;;;;;;7.72;4.20;;;5.90;99.90;;;;;;5074355;28;20056;-73
2022/12/05 13:07:46;;;;;;;10.52;4.75;;;5.90;99.90;;;;;;5074959;28;20093;-73
2022/12/05 13:10:27;;;;;;;7.13;4.40;;;5.90;99.90;;;;;;5074747;28;20036;-73
2022/12/05 13:12:54;;;;;;;7.57;4.47;;;5.90;99.90;;;;;;5074498;28;20476;-73
2022/12/05 13:15:32;;;;;;;7.30;4.53;;;5.90;99.90;;;;;;5074524;28;20048;-73
2022/12/05 13:17:58;;;;;;;6.35;4.10;;;5.80;99.90;;;;;;5074399;28;20075;-73
2022/12/05 13:20:29;;;;;;;7.30;4.10;;;5.90;99.90;;;;;;5073473;28;20447;-73
2022/12/05 13:22:55;;;;;;;8.63;4.60;;;5.90;99.90;;;;;;5073611;28;20051;-73